Time;durP1;ratioP1;P1;durP2;ratioP2;P2;SDS_P1;SDS_P2;PMS_P1;PMS_P2;Temp;Humidity;BMP_temperature;BMP_pressure;BME280_temperature;BME280_humidity;BME280_pressure;Samples;Min_cycle;Max_cycle;Signal;HPM_P1;HPM_P2
2021/07/31 00:01:08;;;;;;;14.33;12.60;;;;;;;29.97;53.26;101071.17;1782170;80;21030;-49
2021/07/31 00:03:36;;;;;;;13.90;12.50;;;;;;;29.97;53.28;101073.00;1627775;86;21842;-49
2021/07/31 00:06:05;;;;;;;14.43;12.78;;;;;;;29.95;53.36;101074.50;1635817;86;21571;-48
2021/07/31 00:08:31;;;;;;;14.80;12.88;;;;;;;29.95;53.41;101073.16;1606331;87;21050;-48
2021/07/31 00:11:00;;;;;;;14.83;13.22;;;;;;;29.94;53.45;101070.14;1638981;86;21034;-50
2021/07/31 00:13:27;;;;;;;15.55;13.93;;;;;;;29.94;53.52;101067.45;1630295;86;21079;-49
2021/07/31 00:15:54;;;;;;;16.15;14.13;;;;;;;29.94;53.52;101067.95;1616096;86;21042;-49
2021/07/31 00:18:22;;;;;;;15.55;13.85;;;;;;;29.93;53.55;101065.75;1629736;86;21059;-48
2021/07/31 00:20:51;;;;;;;15.40;13.18;;;;;;;29.93;53.55;101064.41;1634289;86;21034;-49
2021/07/31 00:23:18;;;;;;;16.10;13.45;;;;;;;29.92;53.59;101058.72;1614668;86;21111;-48
2021/07/31 00:25:44;;;;;;;22.50;14.05;;;;;;;29.91;53.62;101051.64;1629385;86;21019;-49
2021/07/31 00:28:14;;;;;;;14.63;13.13;;;;;;;29.92;53.61;101052.01;1629516;86;21050;-49
2021/07/31 00:30:41;;;;;;;14.18;12.78;;;;;;;29.90;53.63;101049.97;1598564;88;21067;-50
2021/07/31 00:33:09;;;;;;;15.43;12.45;;;;;;;29.88;53.59;101046.59;1604410;88;21008;-49
2021/07/31 00:35:36;;;;;;;14.95;12.88;;;;;;;29.87;53.50;101046.23;1620399;88;21100;-49
2021/07/31 00:38:03;;;;;;;15.40;12.10;;;;;;;29.86;53.45;101039.69;1620832;88;21156;-49
2021/07/31 00:40:33;;;;;;;13.38;11.97;;;;;;;29.84;53.52;101043.87;1623284;88;21565;-49
2021/07/31 00:43:07;;;;;;;15.08;11.93;;;;;;;29.84;53.49;101046.55;1619542;88;21057;-48
2021/07/31 00:45:36;;;;;;;16.90;12.55;;;;;;;29.82;53.60;101043.14;1618426;88;21621;-49
2021/07/31 00:48:04;;;;;;;12.18;10.88;;;;;;;29.80;53.72;101046.47;1614799;87;21087;-48
2021/07/31 00:50:31;;;;;;;15.80;11.15;;;;;;;29.78;53.90;101048.45;1621970;87;21069;-48
2021/07/31 00:52:59;;;;;;;16.67;11.93;;;;;;;29.77;54.17;101037.89;1626758;88;21638;-48
2021/07/31 00:55:27;;;;;;;21.95;11.35;;;;;;;29.74;54.25;101038.53;1638862;86;21040;-48
2021/07/31 00:57:54;;;;;;;17.15;12.47;;;;;;;29.73;54.23;101040.03;1640700;86;21520;-48
2021/07/31 01:00:23;;;;;;;13.32;11.93;;;;;;;29.71;54.32;101037.48;1686959;81;20992;-48
2021/07/31 01:02:49;;;;;;;13.22;11.88;;;;;;;29.69;54.49;101028.73;1741199;81;21052;-49
2021/07/31 01:05:16;;;;;;;16.67;12.03;;;;;;;29.68;54.72;101030.20;1751023;80;21527;-48
2021/07/31 01:07:43;;;;;;;14.60;11.88;;;;;;;29.67;54.95;101028.04;1761547;80;21055;-48
2021/07/31 01:10:10;;;;;;;17.77;11.50;;;;;;;29.66;55.06;101028.16;1741595;80;21053;-48
2021/07/31 01:12:39;;;;;;;16.02;11.55;;;;;;;29.65;55.19;101030.03;1762105;80;21018;-48
2021/07/31 01:15:10;;;;;;;13.78;11.75;;;;;;;29.66;55.21;101029.02;1768994;80;21147;-48
2021/07/31 01:17:36;;;;;;;13.80;12.25;;;;;;;29.67;55.19;101023.16;1753284;80;21041;-48
2021/07/31 01:20:05;;;;;;;15.65;11.83;;;;;;;29.67;55.25;101030.72;1752296;80;20998;-48
2021/07/31 01:22:33;;;;;;;13.65;12.25;;;;;;;29.69;55.22;101026.55;1760840;80;21054;-48
2021/07/31 01:25:01;;;;;;;16.20;12.68;;;;;;;29.67;55.25;101021.83;1757396;80;21628;-48
2021/07/31 01:27:28;;;;;;;16.20;12.68;;;;;;;29.69;55.18;101026.55;1746338;80;21033;-48
2021/07/31 01:29:57;;;;;;;18.32;14.13;;;;;;;29.68;54.79;101020.81;1756547;81;21535;-48
2021/07/31 01:32:23;;;;;;;18.42;13.90;;;;;;;29.66;54.12;101020.12;1762815;80;21041;-49
2021/07/31 01:34:50;;;;;;;15.10;13.55;;;;;;;29.64;53.66;101027.47;1761303;81;21484;-48
2021/07/31 01:37:19;;;;;;;15.98;13.13;;;;;;;29.61;53.41;101019.73;1752663;80;21025;-48
2021/07/31 01:39:47;;;;;;;14.65;13.15;;;;;;;29.58;53.31;101027.58;1756503;80;21007;-48
2021/07/31 01:42:14;;;;;;;19.60;14.35;;;;;;;29.55;53.14;101029.72;1759448;80;21070;-48
2021/07/31 01:44:43;;;;;;;14.60;12.82;;;;;;;29.52;53.15;101034.02;1752903;82;21003;-48
2021/07/31 01:47:11;;;;;;;15.15;13.55;;;;;;;29.49;53.19;101034.34;1759509;80;21052;-48
2021/07/31 01:49:38;;;;;;;18.60;14.18;;;;;;;29.46;53.17;101038.16;1754169;80;21054;-49
2021/07/31 01:52:09;;;;;;;14.35;12.82;;;;;;;29.44;53.15;101038.80;1749447;80;21577;-48
2021/07/31 01:54:36;;;;;;;15.88;14.38;;;;;;;29.42;53.13;101037.25;1755177;80;20997;-49
2021/07/31 01:57:04;;;;;;;18.77;14.58;;;;;;;29.39;53.15;101040.20;1750692;80;21082;-49
2021/07/31 01:59:49;;;;;;;18.85;13.98;;;;;;;29.36;53.11;101041.86;1743027;80;21518;-48
2021/07/31 02:02:16;;;;;;;20.52;14.63;;;;;;;29.35;53.05;101042.83;1748719;80;21054;-48
2021/07/31 02:04:45;;;;;;;15.45;13.83;;;;;;;29.31;53.01;101044.12;1747101;80;21106;-48
2021/07/31 02:07:31;;;;;;;15.98;14.28;;;;;;;29.28;53.02;101044.43;1679135;84;21384;-48
2021/07/31 02:09:58;;;;;;;17.87;14.23;;;;;;;29.25;53.04;101039.34;1674310;85;21074;-48
2021/07/31 02:12:25;;;;;;;15.75;13.95;;;;;;;29.24;53.08;101052.41;1671500;85;21034;-48
2021/07/31 02:14:54;;;;;;;14.78;13.05;;;;;;;29.21;53.10;101043.31;1684834;85;21543;-48
2021/07/31 02:17:23;;;;;;;17.40;13.55;;;;;;;29.20;53.14;101044.31;1664281;85;21062;-48
2021/07/31 02:19:50;;;;;;;25.08;15.08;;;;;;;29.19;53.18;101046.63;1669767;84;21093;-48
2021/07/31 02:22:19;;;;;;;18.15;14.60;;;;;;;29.16;53.27;101045.59;1679383;85;21034;-49
2021/07/31 02:25:07;;;;;;;16.12;13.35;;;;;;;29.13;53.36;101043.16;1676270;85;21057;-48
2021/07/31 02:27:54;;;;;;;16.37;12.40;;;;;;;29.11;53.40;101045.14;1586813;89;21054;-48
2021/07/31 02:30:22;;;;;;;13.18;11.78;;;;;;;29.10;53.43;101048.83;1581669;89;21041;-48
2021/07/31 02:32:49;;;;;;;17.45;12.50;;;;;;;29.07;53.61;101042.41;1590670;89;21162;-48
2021/07/31 02:35:16;;;;;;;14.90;13.25;;;;;;;29.07;53.78;101045.08;1583672;90;21030;-48
2021/07/31 02:37:53;;;;;;;16.00;11.78;;;;;;;29.07;53.97;101042.41;1566785;90;21137;-47
2021/07/31 02:40:21;;;;;;;13.55;12.30;;;;;;;29.05;54.21;101048.40;1569118;91;21125;-48
2021/07/31 02:42:48;;;;;;;14.00;12.03;;;;;;;29.06;54.44;101047.42;1566086;91;21090;-48
2021/07/31 02:45:15;;;;;;;18.05;12.43;;;;;;;29.03;54.67;101051.72;1560845;91;21088;-49
2021/07/31 02:47:41;;;;;;;14.15;12.28;;;;;;;29.04;54.91;101054.77;1561145;91;21207;-49
2021/07/31 02:50:11;;;;;;;14.30;12.68;;;;;;;29.05;55.15;101059.12;1577392;91;21585;-48
2021/07/31 02:52:40;;;;;;;15.18;13.32;;;;;;;29.06;55.41;101063.50;1575519;91;21070;-47
2021/07/31 02:55:08;;;;;;;15.30;13.68;;;;;;;29.07;55.70;101061.16;1603427;87;21033;-48
2021/07/31 02:57:35;;;;;;;18.07;13.10;;;;;;;29.08;55.84;101058.33;1620808;88;21563;-48
2021/07/31 03:00:03;;;;;;;18.17;14.35;;;;;;;29.10;55.96;101067.06;1664821;85;21199;-48
2021/07/31 03:02:30;;;;;;;20.02;14.10;;;;;;;29.13;56.08;101065.45;1635814;86;21047;-47
2021/07/31 03:04:57;;;;;;;20.23;14.58;;;;;;;29.15;56.20;101070.69;1631973;87;21102;-47
2021/07/31 03:07:25;;;;;;;19.10;15.20;;;;;;;29.18;56.34;101073.09;1632701;86;21070;-48
2021/07/31 03:09:53;;;;;;;20.77;14.15;;;;;;;29.19;56.43;101070.75;1639217;87;21031;-48
2021/07/31 03:12:22;;;;;;;19.15;14.00;;;;;;;29.21;56.57;101072.78;1637959;86;21495;-48
2021/07/31 03:14:49;;;;;;;18.60;14.45;;;;;;;29.23;56.57;101073.48;1639472;86;21129;-49
2021/07/31 03:17:21;;;;;;;17.20;14.33;;;;;;;29.25;56.61;101076.87;1699173;83;21023;-49
2021/07/31 03:19:49;;;;;;;21.42;14.93;;;;;;;29.26;56.69;101077.23;1695466;83;21775;-48
2021/07/31 03:22:17;;;;;;;18.15;14.40;;;;;;;29.28;56.86;101077.45;1693422;83;21555;-49
2021/07/31 03:24:49;;;;;;;26.85;15.48;;;;;;;29.31;57.08;101081.64;1685030;83;21479;-49
2021/07/31 03:27:17;;;;;;;21.30;14.20;;;;;;;29.32;57.23;101083.35;1667797;84;21094;-49
2021/07/31 03:30:04;;;;;;;16.35;13.98;;;;;;;29.36;57.37;101087.43;1704714;83;21022;-49
2021/07/31 03:32:32;;;;;;;18.00;14.33;;;;;;;29.40;57.53;101080.78;1707694;81;21010;-48
2021/07/31 03:35:01;;;;;;;19.67;13.45;;;;;;;29.45;57.77;101085.23;1744307;80;20983;-47
2021/07/31 03:37:28;;;;;;;20.37;14.55;;;;;;;29.52;58.09;101083.63;1758778;80;21078;-49
2021/07/31 03:39:55;;;;;;;25.27;22.67;;;;;;;29.63;58.27;101087.48;1770417;80;21113;-48
2021/07/31 03:42:22;;;;;;;29.12;23.00;;;;;;;29.81;58.38;101086.22;1761922;80;21038;-49
2021/07/31 03:44:50;;;;;;;92.82;83.65;;;;;;;30.06;58.20;101087.72;1766486;80;21066;-49
2021/07/31 03:47:17;;;;;;;57.48;51.85;;;;;;;30.39;57.65;101084.43;1752339;80;21006;-48
2021/07/31 03:49:44;;;;;;;25.17;22.55;;;;;;;30.76;56.72;101088.30;1750857;80;20971;-48
2021/07/31 03:52:12;;;;;;;34.63;31.00;;;;;;;31.04;55.79;101086.34;1745872;80;21102;-49
2021/07/31 03:54:39;;;;;;;20.25;18.25;;;;;;;31.27;55.23;101091.07;1744674;80;20990;-49
2021/07/31 03:57:06;;;;;;;27.60;24.90;;;;;;;31.46;54.77;101091.38;1774733;80;21010;-48
2021/07/31 03:59:34;;;;;;;23.10;20.62;;;;;;;31.63;54.20;101089.62;1657003;85;21089;-49
2021/07/31 04:02:02;;;;;;;17.73;14.70;;;;;;;31.75;53.78;101091.88;1662996;85;21574;-49
2021/07/31 04:04:30;;;;;;;18.17;13.13;;;;;;;31.81;53.40;101093.92;1660752;85;21030;-50
2021/07/31 04:06:58;;;;;;;17.77;12.47;;;;;;;31.81;53.17;101093.92;1675350;85;21101;-49
2021/07/31 04:09:44;;;;;;;14.75;12.58;;;;;;;31.79;53.11;101093.23;1668367;85;21081;-49
2021/07/31 04:12:30;;;;;;;148.80;22.05;;;;;;;31.73;53.16;101103.30;1672571;85;21034;-48
2021/07/31 04:15:19;;;;;;;43.23;14.65;;;;;;;31.65;53.25;101097.89;1605164;87;21632;-48
2021/07/31 04:17:48;;;;;;;40.12;16.85;;;;;;;31.58;53.39;101098.17;1604602;87;21041;-49
2021/07/31 04:20:18;;;;;;;18.87;13.20;;;;;;;31.51;53.52;101098.45;1620628;88;21716;-48
2021/07/31 04:22:45;;;;;;;19.20;12.95;;;;;;;31.46;53.53;101103.48;1608423;88;21038;-50
2021/07/31 04:25:12;;;;;;;20.62;12.68;;;;;;;31.39;53.46;101099.73;1610268;88;21125;-48
2021/07/31 04:27:39;;;;;;;19.40;12.88;;;;;;;31.34;53.56;101104.73;1606870;88;21132;-48
2021/07/31 04:30:08;;;;;;;16.20;12.23;;;;;;;31.29;53.67;101103.00;1596585;87;21041;-48
2021/07/31 04:32:34;;;;;;;17.42;11.88;;;;;;;31.25;53.63;101104.32;1609977;87;21040;-49
2021/07/31 04:35:03;;;;;;;16.45;11.63;;;;;;;31.20;53.55;101106.13;1608890;88;21072;-47
2021/07/31 04:37:30;;;;;;;14.95;11.48;;;;;;;31.18;53.45;101108.66;1598660;87;21045;-50
2021/07/31 04:39:59;;;;;;;17.75;11.65;;;;;;;31.14;53.44;101111.32;1604038;87;21522;-49
2021/07/31 04:42:26;;;;;;;12.47;11.05;;;;;;;31.12;53.43;101114.63;1610147;88;21077;-49
2021/07/31 04:44:52;;;;;;;14.83;11.33;;;;;;;31.09;53.48;101121.19;1597210;88;21539;-49
2021/07/31 04:47:19;;;;;;;20.85;13.05;;;;;;;31.07;53.61;101118.31;1648694;85;21085;-49
2021/07/31 04:49:46;;;;;;;24.72;12.30;;;;;;;31.06;53.64;101123.32;1651669;85;21093;-50
2021/07/31 04:52:13;;;;;;;13.85;11.35;;;;;;;31.06;53.59;101121.98;1665453;85;21505;-47
2021/07/31 04:54:41;;;;;;;12.40;11.05;;;;;;;31.06;53.50;101121.98;1647610;85;21026;-51
2021/07/31 04:57:09;;;;;;;13.98;12.13;;;;;;;31.06;53.46;101124.67;1738124;80;21139;-49
2021/07/31 04:59:36;;;;;;;15.38;12.13;;;;;;;31.06;53.48;101131.39;1753449;81;21034;-48
2021/07/31 05:02:03;;;;;;;13.15;11.85;;;;;;;31.04;53.76;101123.98;1757737;80;21512;-49
2021/07/31 05:04:31;;;;;;;16.80;12.30;;;;;;;31.05;54.11;101136.44;1737966;80;21049;-49
2021/07/31 05:06:59;;;;;;;17.82;13.15;;;;;;;31.07;54.39;101133.09;1762655;80;21053;-49
2021/07/31 05:09:26;;;;;;;12.88;11.40;;;;;;;31.07;54.55;101135.78;1755384;80;21486;-49
2021/07/31 05:11:53;;;;;;;22.67;12.15;;;;;;;31.10;54.50;101132.77;1753589;80;21002;-48
2021/07/31 05:14:19;;;;;;;14.00;11.90;;;;;;;31.12;54.01;101138.83;1774305;80;21006;-49
2021/07/31 05:16:48;;;;;;;17.05;11.48;;;;;;;31.12;53.37;101138.34;1766485;80;21038;-49
2021/07/31 05:19:14;;;;;;;14.95;11.25;;;;;;;31.15;52.38;101135.84;1751874;80;20990;-49
2021/07/31 05:21:42;;;;;;;16.93;11.93;;;;;;;31.16;51.96;101138.89;1748471;80;21476;-49
2021/07/31 05:24:08;;;;;;;12.98;11.78;;;;;;;31.20;51.89;101146.45;1756012;80;21018;-50
2021/07/31 05:26:39;;;;;;;24.05;13.32;;;;;;;31.25;51.91;101140.62;1750102;81;21071;-49
2021/07/31 05:29:07;;;;;;;12.90;10.57;;;;;;;31.29;51.68;101135.27;1732147;80;21175;-50
2021/07/31 05:31:35;;;;;;;11.78;10.30;;;;;;;31.36;51.15;101131.45;1753666;80;21240;-49
2021/07/31 05:34:02;;;;;;;11.53;10.25;;;;;;;31.42;50.35;101135.73;1760207;80;21566;-48
2021/07/31 05:36:34;;;;;;;12.20;10.80;;;;;;;31.48;49.82;101135.59;1745438;80;21082;-50
2021/07/31 05:39:00;;;;;;;31.20;12.85;;;;;;;31.56;49.95;101135.15;1731485;80;21036;-51
2021/07/31 05:41:26;;;;;;;13.98;11.30;;;;;;;31.67;49.61;101129.52;1758514;80;21561;-49
2021/07/31 05:43:53;;;;;;;11.55;9.83;;;;;;;31.82;49.07;101129.23;1756963;80;21503;-50
2021/07/31 05:46:19;;;;;;;12.20;10.68;;;;;;;31.99;48.42;101129.69;1768205;80;21010;-49
2021/07/31 05:48:46;;;;;;;16.40;10.43;;;;;;;32.17;47.31;101128.75;1767383;80;21011;-50
2021/07/31 05:51:14;;;;;;;16.05;10.18;;;;;;;32.33;46.85;101135.03;1755666;80;21046;-49
2021/07/31 05:53:40;;;;;;;11.95;10.88;;;;;;;32.48;46.22;101137.97;1757314;80;20999;-49
2021/07/31 05:56:09;;;;;;;11.18;10.00;;;;;;;32.60;45.69;101140.15;1758828;80;21018;-48
2021/07/31 05:58:36;;;;;;;20.85;14.45;;;;;;;32.74;45.43;101138.67;1705782;83;21034;-48
2021/07/31 06:01:06;;;;;;;13.62;12.10;;;;;;;32.89;45.19;101140.52;1702780;83;21066;-49
2021/07/31 06:03:35;;;;;;;11.43;10.28;;;;;;;33.06;44.86;101142.75;1687349;82;21777;-48
2021/07/31 06:06:03;;;;;;;12.58;10.25;;;;;;;33.25;44.02;101143.77;1702985;82;21097;-49
2021/07/31 06:08:30;;;;;;;10.58;9.53;;;;;;;33.41;43.79;101143.73;1707880;83;21050;-49
2021/07/31 06:11:04;;;;;;;10.58;9.08;;;;;;;33.53;43.61;101139.69;1710571;83;21097;-48
2021/07/31 06:13:31;;;;;;;35.78;11.73;;;;;;;33.62;43.71;101141.37;1680831;85;21166;-48
2021/07/31 06:15:58;;;;;;;16.00;9.68;;;;;;;33.71;43.33;101144.05;1686208;83;21027;-49
2021/07/31 06:18:25;;;;;;;13.25;10.32;;;;;;;33.74;43.63;101139.66;1702987;83;21141;-49
2021/07/31 06:20:52;;;;;;;19.92;11.57;;;;;;;33.75;43.68;101134.58;1686277;83;21029;-49
2021/07/31 06:23:19;;;;;;;10.08;9.08;;;;;;;33.76;43.76;101130.88;1691068;83;21112;-49
2021/07/31 06:25:45;;;;;;;13.28;9.90;;;;;;;33.75;41.39;101135.43;1692859;82;21046;-49
2021/07/31 06:28:12;;;;;;;9.40;8.55;;;;;;;33.75;41.46;101134.58;1690352;83;21038;-49
2021/07/31 06:30:40;;;;;;;9.18;8.38;;;;;;;33.74;41.28;101137.78;1687260;83;21026;-50
2021/07/31 06:33:07;;;;;;;11.53;8.30;;;;;;;33.72;40.51;101132.25;1694727;83;21101;-49
2021/07/31 06:35:36;;;;;;;12.70;9.33;;;;;;;33.73;40.67;101137.96;1689910;83;21035;-49
2021/07/31 06:38:03;;;;;;;11.20;9.80;;;;;;;33.74;41.23;101139.13;1676427;84;21042;-49
2021/07/31 06:40:30;;;;;;;13.32;9.28;;;;;;;33.73;40.95;101137.96;1684317;83;21145;-49
2021/07/31 06:42:57;;;;;;;12.88;7.97;;;;;;;33.74;41.58;101131.03;1711029;83;21041;-49
2021/07/31 06:45:24;;;;;;;9.20;8.43;;;;;;;33.74;40.02;101134.27;1687793;83;21017;-48
2021/07/31 06:47:51;;;;;;;13.90;10.18;;;;;;;33.73;39.18;101136.61;1674396;83;21032;-49
2021/07/31 06:50:19;;;;;;;13.20;10.35;;;;;;;33.74;39.79;101139.66;1721085;83;21090;-50
2021/07/31 06:52:46;;;;;;;9.13;8.25;;;;;;;33.75;40.16;101130.53;1698237;83;21597;-48
2021/07/31 06:55:13;;;;;;;8.83;7.67;;;;;;;33.76;39.94;101125.48;1743325;80;21038;-49
2021/07/31 06:57:40;;;;;;;9.98;8.38;;;;;;;33.76;38.55;101132.23;1758595;80;21104;-48
2021/07/31 07:00:08;;;;;;;188.47;25.25;;;;;;;33.73;38.56;101126.66;1763176;80;21455;-49
2021/07/31 07:02:35;;;;;;;26.50;10.35;;;;;;;33.72;39.82;101130.90;1761315;80;21544;-49
2021/07/31 07:05:02;;;;;;;10.08;9.05;;;;;;;33.69;40.51;101129.88;1765361;80;21467;-49
2021/07/31 07:07:29;;;;;;;10.20;9.03;;;;;;;33.67;41.07;101126.52;1766086;80;21050;-49
2021/07/31 07:09:56;;;;;;;9.18;8.05;;;;;;;33.65;41.44;101128.86;1759095;80;21014;-48
2021/07/31 07:12:23;;;;;;;13.18;9.53;;;;;;;33.64;41.78;101128.55;1752125;81;21051;-49
2021/07/31 07:14:50;;;;;;;13.35;9.58;;;;;;;33.64;41.62;101133.09;1751873;80;21074;-49
2021/07/31 07:17:17;;;;;;;12.80;9.50;;;;;;;33.64;42.04;101133.09;1743892;80;21071;-49
2021/07/31 07:19:45;;;;;;;10.10;9.13;;;;;;;33.65;41.87;101135.61;1759416;80;21030;-47
2021/07/31 07:22:13;;;;;;;13.10;9.35;;;;;;;33.69;42.26;101137.98;1753568;80;21015;-49
2021/07/31 07:24:40;;;;;;;11.40;10.30;;;;;;;33.72;42.42;101141.16;1756496;80;21136;-49
2021/07/31 07:27:06;;;;;;;10.08;9.15;;;;;;;33.77;42.52;101140.64;1757330;80;21097;-50
2021/07/31 07:29:33;;;;;;;10.63;9.55;;;;;;;33.82;42.62;101142.33;1750608;80;21010;-49
2021/07/31 07:32:00;;;;;;;13.25;9.38;;;;;;;33.87;42.90;101141.28;1756398;80;21007;-50
2021/07/31 07:34:27;;;;;;;11.97;10.82;;;;;;;33.89;43.24;101141.95;1752832;80;21522;-48
2021/07/31 07:36:54;;;;;;;13.90;11.35;;;;;;;33.93;43.79;101143.28;1748596;80;21535;-48
2021/07/31 07:39:20;;;;;;;17.90;11.53;;;;;;;33.94;44.68;101149.88;1777458;80;21050;-49
2021/07/31 07:41:47;;;;;;;12.98;11.73;;;;;;;33.94;45.05;101149.03;1779504;80;21489;-49
2021/07/31 07:44:14;;;;;;;15.05;11.15;;;;;;;33.92;45.27;101149.22;1753427;80;20995;-49
2021/07/31 07:46:43;;;;;;;13.03;11.73;;;;;;;33.89;45.43;101152.25;1748668;80;21640;-49
2021/07/31 07:49:10;;;;;;;19.77;12.43;;;;;;;33.84;45.61;101149.75;1754609;80;20995;-49
2021/07/31 07:51:39;;;;;;;12.68;11.38;;;;;;;33.76;46.06;101147.08;1763649;80;21522;-48
2021/07/31 07:54:05;;;;;;;15.55;11.28;;;;;;;33.71;46.25;101146.74;1761059;80;21081;-49
2021/07/31 07:56:32;;;;;;;13.68;12.30;;;;;;;33.69;46.48;101140.67;1742350;81;21502;-49
2021/07/31 07:59:00;;;;;;;12.95;11.75;;;;;;;33.67;46.79;101138.16;1753483;81;21016;-49
2021/07/31 08:01:29;;;;;;;14.90;11.60;;;;;;;33.68;46.93;101147.07;1734676;80;21067;-49
2021/07/31 08:03:57;;;;;;;13.95;11.40;;;;;;;33.68;47.03;101145.22;1761870;80;21580;-50
2021/07/31 08:06:23;;;;;;;18.20;15.23;;;;;;;33.69;47.14;101143.38;1745465;80;21583;-49
2021/07/31 08:08:50;;;;;;;16.80;14.03;;;;;;;33.70;47.18;101136.95;1760096;80;21049;-49
2021/07/31 08:11:17;;;;;;;23.98;19.42;;;;;;;33.73;47.17;101143.36;1753746;80;21019;-50
2021/07/31 08:13:44;;;;;;;18.65;16.73;;;;;;;33.77;46.96;101137.95;1757474;80;21096;-49
2021/07/31 08:16:12;;;;;;;15.30;13.75;;;;;;;33.82;47.07;101133.70;1756412;80;21070;-50
2021/07/31 08:18:39;;;;;;;14.20;12.37;;;;;;;33.88;46.96;101134.88;1759397;80;21019;-50
2021/07/31 08:21:07;;;;;;;14.73;12.00;;;;;;;33.92;46.83;101138.91;1756011;80;21030;-49
2021/07/31 08:23:34;;;;;;;16.27;13.93;;;;;;;33.94;46.76;101132.33;1760051;81;21023;-48
2021/07/31 08:26:02;;;;;;;14.75;13.18;;;;;;;33.99;46.76;101141.23;1743004;80;21070;-48
2021/07/31 08:28:29;;;;;;;16.32;11.80;;;;;;;34.02;46.49;101142.28;1768054;80;21157;-48
2021/07/31 08:30:56;;;;;;;13.98;11.97;;;;;;;34.02;46.61;101136.88;1763077;80;21533;-48
2021/07/31 08:33:23;;;;;;;16.87;13.32;;;;;;;34.01;46.79;101138.73;1751371;80;21022;-49
2021/07/31 08:35:50;;;;;;;15.25;13.30;;;;;;;34.04;46.91;101145.64;1758312;80;21066;-48
2021/07/31 08:38:16;;;;;;;15.43;12.10;;;;;;;34.05;47.11;101143.27;1775714;80;21549;-49
2021/07/31 08:40:44;;;;;;;16.67;12.85;;;;;;;34.05;47.26;101144.61;1763253;80;21061;-50
2021/07/31 08:43:11;;;;;;;15.48;12.73;;;;;;;34.05;47.56;101144.61;1763529;80;21043;-49
2021/07/31 08:45:40;;;;;;;18.95;13.95;;;;;;;34.08;47.83;101145.63;1746214;80;21522;-49
2021/07/31 08:48:07;;;;;;;16.32;13.15;;;;;;;34.11;47.83;101141.20;1723293;81;21013;-50
2021/07/31 08:50:34;;;;;;;17.27;13.50;;;;;;;34.11;47.98;101141.20;1757935;81;20999;-49
2021/07/31 08:53:00;;;;;;;15.03;13.43;;;;;;;34.13;48.09;101143.22;1722977;81;21756;-49
2021/07/31 08:55:28;;;;;;;16.40;12.53;;;;;;;34.16;47.95;101142.89;1739581;81;20962;-49
2021/07/31 08:57:55;;;;;;;15.05;11.70;;;;;;;34.20;47.70;101141.52;1743824;80;21502;-50
2021/07/31 09:00:22;;;;;;;14.10;12.75;;;;;;;34.23;47.31;101145.23;1758775;80;21003;-49
2021/07/31 09:02:49;;;;;;;13.70;12.13;;;;;;;34.23;47.17;101138.47;1765910;80;21073;-49
2021/07/31 09:05:34;;;;;;;14.45;12.60;;;;;;;34.23;47.06;101141.17;1762392;80;21019;-49
2021/07/31 09:08:07;;;;;;;13.53;11.18;;;;;;;34.23;47.14;101138.47;1666819;84;21089;-51
2021/07/31 09:10:42;;;;;;;18.37;12.18;;;;;;;34.22;46.56;101135.42;1654504;84;21049;-48
2021/07/31 09:13:15;;;;;;;15.32;10.90;;;;;;;34.17;46.75;101140.53;1666054;85;21076;-49
2021/07/31 09:15:52;;;;;;;14.85;11.22;;;;;;;34.13;46.38;101137.32;1663067;84;21077;-48
2021/07/31 09:18:32;;;;;;;12.05;10.82;;;;;;;34.07;45.94;101139.88;1680564;84;21008;-49
2021/07/31 09:21:11;;;;;;;12.03;10.00;;;;;;;34.00;45.77;101140.27;1652947;85;21509;-49
2021/07/31 09:23:45;;;;;;;11.40;10.03;;;;;;;33.91;45.65;101142.62;1661892;83;21288;-50
2021/07/31 09:26:24;;;;;;;11.20;10.03;;;;;;;33.83;46.36;101145.35;1674707;84;21625;-50
2021/07/31 09:29:08;;;;;;;9.85;8.75;;;;;;;33.80;45.64;101140.31;1566979;91;21030;-48
2021/07/31 09:31:37;;;;;;;9.68;8.65;;;;;;;33.69;46.52;101142.88;1569915;90;21631;-51
2021/07/31 09:34:04;;;;;;;9.73;8.53;;;;;;;33.67;46.19;101145.41;1579350;90;21043;-48
2021/07/31 09:36:40;;;;;;;9.50;8.48;;;;;;;33.62;45.93;101144.06;1577208;89;21097;-50
2021/07/31 09:39:09;;;;;;;9.70;7.55;;;;;;;33.59;45.68;101141.70;1537446;91;21139;-49
2021/07/31 09:41:40;;;;;;;8.20;7.50;;;;;;;33.55;45.39;101137.66;1531189;92;21043;-49
2021/07/31 09:44:11;;;;;;;10.75;7.60;;;;;;;33.54;44.95;101135.14;1541280;92;21060;-50
2021/07/31 09:46:45;;;;;;;8.80;7.47;;;;;;;33.55;45.22;101136.31;1541250;92;21140;-49
2021/07/31 09:49:19;;;;;;;12.58;7.25;;;;;;;33.58;44.74;101137.33;1509172;93;21160;-49
2021/07/31 09:51:49;;;;;;;8.73;7.67;;;;;;;33.59;44.79;101128.73;1511072;94;21087;-49
2021/07/31 09:54:18;;;;;;;11.65;7.53;;;;;;;33.58;44.52;101131.94;1506366;94;21070;-49
2021/07/31 09:56:48;;;;;;;7.85;7.20;;;;;;;33.56;45.00;101133.11;1502038;93;21193;-50
2021/07/31 09:59:17;;;;;;;8.85;7.53;;;;;;;33.56;45.42;101138.52;1500593;94;21638;-49
2021/07/31 10:04:27;;;;;;;16.80;15.13;;;;;;;33.64;45.92;101140.69;1483961;93;21169;-49
2021/07/31 10:06:58;;;;;;;9.45;8.40;;;;;;;33.69;46.19;101138.83;1503425;94;21136;-49
2021/07/31 10:09:25;;;;;;;9.98;8.28;;;;;;;33.72;45.92;101138.46;1502797;93;21647;-48
2021/07/31 10:11:52;;;;;;;10.28;7.22;;;;;;;33.78;46.24;101132.90;1502330;94;21115;-50
2021/07/31 10:14:18;;;;;;;10.98;7.37;;;;;;;33.81;46.24;101131.19;1515383;93;21106;-49
2021/07/31 10:16:47;;;;;;;11.78;6.60;;;;;;;33.87;46.51;101126.44;1506354;94;21174;-49
2021/07/31 10:19:16;;;;;;;10.85;6.97;;;;;;;33.94;45.99;101115.28;1498818;94;21924;-51
2021/07/31 10:21:48;;;;;;;10.68;6.83;;;;;;;34.02;45.92;101112.58;1508182;94;21639;-50
2021/07/31 10:24:15;;;;;;;11.10;7.45;;;;;;;34.08;45.89;101110.52;1518822;90;21099;-47
2021/07/31 10:27:17;;;;;;;8.75;6.85;;;;;;;34.15;45.43;101120.97;1544809;92;21660;-48
2021/07/31 10:29:45;;;;;;;7.70;7.00;;;;;;;34.18;45.41;101112.48;1546429;91;21118;-50
2021/07/31 10:32:38;;;;;;;7.15;6.50;;;;;;;34.20;45.76;101113.15;1556436;92;21092;-50
2021/07/31 10:35:28;;;;;;;12.65;9.23;;;;;;;34.22;45.66;101108.41;1570967;87;21541;-48
2021/07/31 10:37:59;;;;;;;18.90;12.00;;;;;;;34.24;45.76;101106.38;1601189;87;21659;-50
2021/07/31 10:40:33;;;;;;;10.68;9.43;;;;;;;34.26;45.36;101105.19;1511630;93;21074;-50
2021/07/31 10:43:05;;;;;;;13.43;9.93;;;;;;;34.28;45.07;101110.41;1519042;93;21138;-48
2021/07/31 10:45:33;;;;;;;18.05;15.43;;;;;;;34.27;44.95;101102.80;1503432;94;21055;-50
2021/07/31 10:48:06;;;;;;;29.75;21.40;;;;;;;34.30;44.97;101101.61;1514618;92;21093;-49
2021/07/31 10:50:38;;;;;;;26.33;17.42;;;;;;;34.31;45.35;101104.13;1498291;93;21171;-50
2021/07/31 10:53:07;;;;;;;20.20;14.15;;;;;;;34.33;45.63;101106.67;1518305;93;21141;-49
2021/07/31 10:55:46;;;;;;;19.15;12.35;;;;;;;34.32;45.31;101107.17;1508055;94;21084;-50
2021/07/31 10:58:18;;;;;;;22.35;17.00;;;;;;;34.35;45.40;101099.23;1503202;94;21569;-49
2021/07/31 11:00:54;;;;;;;18.17;11.53;;;;;;;34.35;45.60;101096.02;1509295;93;21625;-49
2021/07/31 11:03:31;;;;;;;15.93;11.63;;;;;;;34.36;45.39;101094.14;1506626;93;21124;-49
2021/07/31 11:06:01;;;;;;;26.07;15.23;;;;;;;34.37;45.44;101096.69;1508960;93;21606;-49
2021/07/31 11:08:34;;;;;;;15.63;11.10;;;;;;;34.37;44.99;101095.84;1517883;94;21182;-50
2021/07/31 11:11:15;;;;;;;24.27;14.55;;;;;;;34.36;44.65;101082.83;1523021;94;21014;-49
2021/07/31 11:13:51;;;;;;;32.17;18.82;;;;;;;34.38;44.70;101092.09;1526037;92;21074;-50
2021/07/31 11:16:20;;;;;;;37.58;23.27;;;;;;;34.38;44.64;101096.15;1524555;93;21015;-50
2021/07/31 11:18:57;;;;;;;35.65;19.60;;;;;;;34.39;44.01;101097.34;1488304;94;21072;-49
2021/07/31 11:21:26;;;;;;;33.35;18.27;;;;;;;34.40;44.49;101088.70;1489263;94;21122;-50
2021/07/31 11:24:07;;;;;;;34.08;20.57;;;;;;;34.41;45.18;101090.41;1491634;93;21158;-49